Time;durP1;ratioP1;P1;durP2;ratioP2;P2;SDS_P1;SDS_P2;PMS_P1;PMS_P2;Temp;Humidity;BMP_temperature;BMP_pressure;BME280_temperature;BME280_humidity;BME280_pressure;Samples;Min_cycle;Max_cycle;Signal;HPM_P1;HPM_P2
2021/07/17 00:00:51;;;;;;;23.85;11.63;;;;;;;19.92;100.00;101464.50;4970889;28;20240;-75
2021/07/17 00:03:20;;;;;;;28.63;12.48;;;;;;;20.00;100.00;101476.72;4937188;28;20703;-73
2021/07/17 00:05:46;;;;;;;24.83;11.40;;;;;;;20.13;100.00;101471.16;4936031;29;20237;-74
2021/07/17 00:08:14;;;;;;;26.30;11.68;;;;;;;20.20;100.00;101472.34;4936499;28;20183;-75
2021/07/17 00:10:47;;;;;;;27.40;11.73;;;;;;;20.12;100.00;101478.59;4953737;28;20285;-73
2021/07/17 00:13:16;;;;;;;23.25;11.43;;;;;;;20.20;100.00;101471.50;4952206;28;20213;-73
2021/07/17 00:15:41;;;;;;;24.33;10.80;;;;;;;20.09;100.00;101468.22;4937287;28;20242;-75
2021/07/17 00:18:07;;;;;;;23.20;11.07;;;;;;;20.17;100.00;101470.19;4935895;29;20191;-74
2021/07/17 00:20:37;;;;;;;27.30;11.35;;;;;;;20.11;100.00;101459.63;4954300;28;20703;-74
2021/07/17 00:23:07;;;;;;;28.52;10.93;;;;;;;20.00;100.00;101458.25;4955241;28;20582;-74
2021/07/17 00:25:36;;;;;;;26.60;10.98;;;;;;;20.00;100.00;101463.78;4953099;28;20242;-74
2021/07/17 00:28:04;;;;;;;27.85;10.60;;;;;;;20.07;100.00;101469.63;4952698;28;20186;-72
2021/07/17 00:30:37;;;;;;;25.27;10.77;;;;;;;20.02;100.00;101474.47;4952074;28;20639;-74
2021/07/17 00:33:03;;;;;;;22.08;10.95;;;;;;;20.24;100.00;101458.72;4955874;28;20233;-75
2021/07/17 00:35:29;;;;;;;22.77;10.52;;;;;;;19.97;100.00;101463.59;4954658;28;20262;-74
2021/07/17 00:37:54;;;;;;;25.13;10.70;;;;;;;19.94;100.00;101469.72;4951885;28;20175;-76
2021/07/17 00:40:22;;;;;;;25.13;10.55;;;;;;;19.79;100.00;101473.63;4965286;28;20195;-74
2021/07/17 00:42:51;;;;;;;26.35;10.63;;;;;;;19.95;100.00;101466.66;4969083;28;20213;-74
2021/07/17 00:45:18;;;;;;;26.25;10.73;;;;;;;20.00;100.00;101469.28;4935143;28;20700;-75
2021/07/17 00:47:44;;;;;;;25.42;10.23;;;;;;;20.01;100.00;101470.09;4919755;29;20274;-74
2021/07/17 00:50:15;;;;;;;30.45;10.23;;;;;;;20.26;100.00;101470.25;4946054;28;20614;-74
2021/07/17 00:52:45;;;;;;;24.20;9.70;;;;;;;20.31;100.00;101475.63;4924179;29;20261;-75
2021/07/17 00:55:13;;;;;;;22.15;9.52;;;;;;;20.15;100.00;101482.69;4962549;28;20207;-75
2021/07/17 00:57:42;;;;;;;25.35;9.70;;;;;;;20.08;100.00;101476.81;4954663;28;20694;-76
2021/07/17 01:00:11;;;;;;;23.10;9.60;;;;;;;19.95;100.00;101479.63;4962662;28;20274;-75
2021/07/17 01:02:44;;;;;;;18.38;8.63;;;;;;;19.94;100.00;101476.03;4935182;29;20203;-75
2021/07/17 01:05:10;;;;;;;23.10;9.55;;;;;;;20.02;100.00;101478.06;4951581;28;20179;-74
2021/07/17 01:07:36;;;;;;;28.52;10.23;;;;;;;20.05;100.00;101471.91;4919878;29;20696;-74
2021/07/17 01:10:05;;;;;;;27.05;9.40;;;;;;;20.02;100.00;101467.03;4943017;28;20624;-75
2021/07/17 01:12:35;;;;;;;22.20;9.60;;;;;;;19.98;100.00;101477.06;4954782;28;20207;-74
2021/07/17 01:15:01;;;;;;;27.27;10.13;;;;;;;19.87;100.00;101475.69;4935485;29;20199;-74
2021/07/17 01:17:26;;;;;;;25.00;9.40;;;;;;;19.97;100.00;101475.44;4919381;29;20731;-74
2021/07/17 01:19:52;;;;;;;22.75;9.68;;;;;;;19.95;100.00;101471.38;4956201;28;20191;-75
2021/07/17 01:22:18;;;;;;;23.20;9.07;;;;;;;19.83;100.00;101474.66;4953941;28;20231;-75
2021/07/17 01:24:46;;;;;;;23.27;8.75;;;;;;;20.09;100.00;101468.22;4967838;28;20191;-73
2021/07/17 01:27:16;;;;;;;28.02;9.63;;;;;;;20.03;100.00;101468.63;4967115;28;20223;-74
2021/07/17 01:29:42;;;;;;;28.05;9.23;;;;;;;19.90;100.00;101475.03;4955126;28;20234;-75
2021/07/17 01:32:10;;;;;;;23.85;9.20;;;;;;;19.95;100.00;101472.16;4975902;28;20831;-75
2021/07/17 01:34:35;;;;;;;23.75;8.65;;;;;;;19.86;100.00;101468.53;4973863;28;20222;-73
2021/07/17 01:37:08;;;;;;;24.02;9.50;;;;;;;19.90;100.00;101475.03;4938146;29;20634;-74
2021/07/17 01:39:34;;;;;;;22.30;9.10;;;;;;;19.77;100.00;101478.66;4956955;29;20206;-74
2021/07/17 01:41:59;;;;;;;21.38;8.65;;;;;;;20.06;100.00;101467.22;4962739;28;20236;-74
2021/07/17 01:44:25;;;;;;;27.10;8.90;;;;;;;19.64;100.00;101464.09;4955452;29;20723;-75
2021/07/17 01:46:55;;;;;;;27.27;8.63;;;;;;;19.71;100.00;101466.13;4955470;29;20231;-75
2021/07/17 01:49:23;;;;;;;22.23;8.52;;;;;;;19.74;100.00;101468.25;4939198;29;20199;-74
2021/07/17 01:51:48;;;;;;;20.88;8.23;;;;;;;19.92;100.00;101474.75;4954718;28;20241;-74
2021/07/17 01:54:14;;;;;;;22.67;8.70;;;;;;;19.89;100.00;101467.06;4941523;28;20214;-75
2021/07/17 01:56:39;;;;;;;19.40;8.18;;;;;;;19.83;100.00;101469.13;4942535;29;20230;-75
2021/07/17 01:59:07;;;;;;;27.05;8.50;;;;;;;19.86;100.00;101460.25;4953662;28;20198;-74
2021/07/17 02:01:33;;;;;;;26.17;8.27;;;;;;;19.92;100.00;101458.19;4951131;28;20234;-74
2021/07/17 02:03:58;;;;;;;26.17;8.70;;;;;;;20.07;100.00;101453.09;4957689;28;20194;-75
2021/07/17 02:06:27;;;;;;;21.73;8.90;;;;;;;19.94;100.00;101459.50;4945897;29;20304;-74
2021/07/17 02:09:00;;;;;;;26.23;8.50;;;;;;;19.88;100.00;101466.28;4923101;29;20175;-75
2021/07/17 02:11:25;;;;;;;27.95;9.48;;;;;;;19.68;100.00;101465.91;4925426;29;20251;-75
2021/07/17 02:13:55;;;;;;;27.23;9.40;;;;;;;19.64;100.00;101458.59;4955032;28;20222;-75
2021/07/17 02:16:25;;;;;;;25.40;8.77;;;;;;;19.74;100.00;101462.75;4937928;29;20225;-75
2021/07/17 02:18:51;;;;;;;27.63;9.55;;;;;;;19.70;100.00;101467.22;4937793;29;20183;-75
2021/07/17 02:21:20;;;;;;;21.55;9.40;;;;;;;19.51;100.00;101454.75;4961571;28;20798;-75
2021/07/17 02:23:46;;;;;;;25.17;8.65;;;;;;;19.76;100.00;101456.88;4957708;28;20179;-76
2021/07/17 02:26:14;;;;;;;25.35;8.93;;;;;;;19.70;100.00;101458.94;4949866;29;20227;-75
2021/07/17 02:28:40;;;;;;;23.85;8.82;;;;;;;19.64;100.00;101455.84;4938132;29;20179;-74
2021/07/17 02:31:08;;;;;;;26.17;8.65;;;;;;;19.79;100.00;101457.06;4939329;28;20231;-73
2021/07/17 02:33:33;;;;;;;25.95;8.93;;;;;;;19.97;100.00;101453.34;4953631;29;20187;-76
2021/07/17 02:36:01;;;;;;;21.63;9.20;;;;;;;19.62;100.00;101456.16;4945936;29;20232;-73
2021/07/17 02:38:29;;;;;;;24.50;9.02;;;;;;;19.68;100.00;101460.41;4931314;29;20271;-74
2021/07/17 02:40:55;;;;;;;24.73;9.35;;;;;;;19.56;100.00;101456.56;4920563;29;20243;-75
2021/07/17 02:43:20;;;;;;;23.35;9.02;;;;;;;19.60;100.00;101457.59;4922450;29;20210;-73
2021/07/17 02:45:46;;;;;;;20.85;8.57;;;;;;;19.60;100.00;101454.84;4934761;29;20235;-73
2021/07/17 02:48:12;;;;;;;24.45;9.23;;;;;;;19.84;100.00;101454.25;4921360;29;20206;-74
2021/07/17 02:50:38;;;;;;;22.90;8.82;;;;;;;19.82;100.00;101462.00;4952686;29;20223;-73
2021/07/17 02:53:13;;;;;;;24.63;8.50;;;;;;;19.70;100.00;101464.47;4915549;29;20316;-74
2021/07/17 02:55:38;;;;;;;26.05;8.68;;;;;;;19.78;100.00;101455.47;4928343;28;20245;-73
2021/07/17 02:58:06;;;;;;;21.55;8.55;;;;;;;19.89;100.00;101464.31;4952813;28;20191;-74
2021/07/17 03:00:35;;;;;;;26.92;8.30;;;;;;;19.98;100.00;101468.78;4952819;29;20246;-75
2021/07/17 03:03:05;;;;;;;19.58;8.55;;;;;;;19.88;100.00;101460.75;4936534;29;20295;-74
2021/07/17 03:05:31;;;;;;;19.63;8.00;;;;;;;19.91;100.00;101459.31;4902193;29;20247;-74
2021/07/17 03:07:56;;;;;;;21.67;8.93;;;;;;;19.67;100.00;101464.31;4933180;29;20221;-74
2021/07/17 03:10:22;;;;;;;20.50;8.32;;;;;;;19.98;100.00;101467.97;4952256;28;20758;-73
2021/07/17 03:12:48;;;;;;;22.83;8.77;;;;;;;19.67;100.00;101467.06;4937247;29;20263;-76
2021/07/17 03:15:13;;;;;;;20.92;8.70;;;;;;;19.82;100.00;101464.78;4916250;29;20307;-74
2021/07/17 03:17:39;;;;;;;24.00;8.63;;;;;;;19.77;100.00;101475.88;4933443;29;20187;-73
2021/07/17 03:20:05;;;;;;;25.02;8.93;;;;;;;19.62;100.00;101466.38;4916972;29;20179;-75
2021/07/17 03:22:36;;;;;;;25.75;9.40;;;;;;;19.53;100.00;101465.47;4912146;29;20733;-72
2021/07/17 03:25:01;;;;;;;23.35;8.77;;;;;;;19.53;100.00;101468.22;4952816;29;20661;-76
2021/07/17 03:27:29;;;;;;;21.25;8.85;;;;;;;19.62;100.00;101458.91;4958850;28;20244;-76
2021/07/17 03:29:55;;;;;;;25.80;8.70;;;;;;;19.49;100.00;101451.50;4917063;29;20192;-74
2021/07/17 03:32:22;;;;;;;22.15;8.68;;;;;;;19.63;100.00;101456.94;4933001;29;20219;-74
2021/07/17 03:34:48;;;;;;;23.00;8.88;;;;;;;19.83;100.00;101458.13;4917999;29;20211;-73
2021/07/17 03:37:13;;;;;;;31.23;8.73;;;;;;;19.71;100.00;101465.31;4948894;29;20217;-74
2021/07/17 03:39:39;;;;;;;24.77;9.32;;;;;;;19.54;100.00;101458.81;4933024;29;20183;-73
2021/07/17 03:42:05;;;;;;;24.88;8.43;;;;;;;19.79;100.00;101457.06;4918483;29;20251;-74
2021/07/17 03:44:31;;;;;;;21.67;8.48;;;;;;;19.78;100.00;101455.47;4901876;29;20192;-76
2021/07/17 03:47:04;;;;;;;21.52;8.85;;;;;;;19.98;100.00;101455.00;4962637;28;20245;-76
2021/07/17 03:49:32;;;;;;;20.88;9.13;;;;;;;19.86;100.00;101453.94;4971292;28;20190;-74
2021/07/17 03:51:58;;;;;;;21.10;8.82;;;;;;;19.70;100.00;101458.16;4938531;28;20301;-74
2021/07/17 03:54:25;;;;;;;20.35;8.55;;;;;;;19.76;100.00;101454.97;4917346;29;20199;-74
2021/07/17 03:56:51;;;;;;;21.35;8.98;;;;;;;19.76;100.00;101456.88;4932913;29;20223;-75
2021/07/17 03:59:17;;;;;;;22.38;9.45;;;;;;;19.75;100.00;101456.06;4951955;28;20564;-74
2021/07/17 04:01:45;;;;;;;22.30;10.02;;;;;;;19.78;100.00;101454.66;4951154;28;20326;-75
2021/07/17 04:04:13;;;;;;;26.02;10.80;;;;;;;19.79;100.00;101456.28;4934351;29;20180;-75
2021/07/17 04:06:40;;;;;;;29.90;10.00;;;;;;;19.75;100.00;101461.59;4916639;29;20235;-75
2021/07/17 04:09:06;;;;;;;25.05;11.13;;;;;;;19.62;100.00;101453.38;4917488;29;20195;-75
2021/07/17 04:11:36;;;;;;;23.85;10.48;;;;;;;19.77;100.00;101459.34;4928062;29;20262;-74
2021/07/17 04:14:02;;;;;;;22.90;10.35;;;;;;;19.87;100.00;101464.66;4932987;29;20544;-76
2021/07/17 04:16:28;;;;;;;25.90;10.98;;;;;;;19.76;100.00;101463.25;4899902;29;20294;-73
2021/07/17 04:18:56;;;;;;;21.75;10.27;;;;;;;19.66;100.00;101464.59;4916848;29;20195;-74
2021/07/17 04:21:21;;;;;;;22.35;10.85;;;;;;;19.68;100.00;101468.69;4917060;29;20697;-73
2021/07/17 04:23:49;;;;;;;21.50;10.90;;;;;;;19.51;100.00;101470.50;4925792;29;20198;-75
2021/07/17 04:26:15;;;;;;;24.58;11.23;;;;;;;19.27;100.00;101475.44;4932038;29;20576;-75
2021/07/17 04:28:41;;;;;;;24.80;11.05;;;;;;;19.55;100.00;101477.00;4935573;29;20202;-75
2021/07/17 04:31:09;;;;;;;24.77;11.52;;;;;;;19.50;100.00;101479.88;4932166;29;20234;-74
2021/07/17 04:33:37;;;;;;;25.45;10.90;;;;;;;19.46;100.00;101474.16;4924601;29;20258;-74
2021/07/17 04:36:02;;;;;;;20.48;11.07;;;;;;;19.52;100.00;101472.09;4933399;29;20331;-74
2021/07/17 04:38:28;;;;;;;18.45;10.55;;;;;;;19.69;100.00;101479.41;4924326;29;20199;-74
2021/07/17 04:40:56;;;;;;;20.40;11.32;;;;;;;19.69;100.00;101473.88;4932559;29;20302;-75
2021/07/17 04:43:26;;;;;;;21.75;10.98;;;;;;;19.81;100.00;101470.56;4938702;29;20207;-74
2021/07/17 04:45:52;;;;;;;26.63;11.30;;;;;;;19.98;100.00;101473.47;4913136;29;20311;-75
2021/07/17 04:48:17;;;;;;;21.73;10.45;;;;;;;19.78;100.00;101472.00;4922975;29;20665;-74
2021/07/17 04:50:43;;;;;;;27.90;10.98;;;;;;;19.91;100.00;101476.69;4929860;29;20600;-73
2021/07/17 04:53:13;;;;;;;20.88;10.48;;;;;;;19.82;100.00;101473.03;4935584;29;20203;-73
2021/07/17 04:55:39;;;;;;;20.90;11.43;;;;;;;19.83;100.00;101474.66;4951155;29;20230;-74
2021/07/17 04:58:05;;;;;;;20.40;10.60;;;;;;;19.95;100.00;101474.13;4964747;28;20645;-74
2021/07/17 05:00:33;;;;;;;26.25;10.90;;;;;;;19.92;100.00;101478.31;4933468;29;20216;-74
2021/07/17 05:03:01;;;;;;;19.13;10.93;;;;;;;19.72;100.00;101473.28;4917014;29;20235;-74
2021/07/17 05:05:26;;;;;;;17.92;10.32;;;;;;;20.05;100.00;101471.91;4951291;28;20239;-73
2021/07/17 05:07:52;;;;;;;15.13;9.45;;;;;;;19.90;100.00;101483.31;4919636;29;20187;-76
2021/07/17 05:10:19;;;;;;;17.00;10.23;;;;;;;19.86;100.00;101484.28;4916862;29;20191;-77
2021/07/17 05:12:45;;;;;;;19.25;10.50;;;;;;;19.98;100.00;101479.00;4902182;29;20720;-73
2021/07/17 05:15:12;;;;;;;15.35;9.93;;;;;;;20.09;100.00;101472.91;4937832;29;20200;-74
2021/07/17 05:17:37;;;;;;;14.95;9.38;;;;;;;20.00;100.00;101480.31;4904327;29;20180;-74
2021/07/17 05:20:06;;;;;;;14.63;9.07;;;;;;;20.13;100.00;101485.75;4934018;28;20187;-73
2021/07/17 05:22:32;;;;;;;16.75;9.02;;;;;;;20.35;100.00;101487.69;4939867;28;20270;-74
2021/07/17 05:25:00;;;;;;;13.50;8.30;;;;;;;20.56;100.00;101476.56;4941405;29;20323;-74
2021/07/17 05:27:28;;;;;;;13.55;8.80;;;;;;;20.53;100.00;101474.47;4936673;29;20632;-74
2021/07/17 05:29:56;;;;;;;14.40;8.05;;;;;;;20.37;100.00;101486.25;4931921;29;20183;-74
2021/07/17 05:32:27;;;;;;;12.43;7.43;;;;;;;20.11;100.00;101478.94;4938439;29;20231;-75
2021/07/17 05:34:52;;;;;;;11.95;7.45;;;;;;;20.26;100.00;101478.53;4927663;29;20204;-73
2021/07/17 05:37:18;;;;;;;13.93;7.32;;;;;;;20.48;100.00;101477.38;4919564;29;20582;-73
2021/07/17 05:39:46;;;;;;;14.15;7.00;;;;;;;20.47;100.00;101481.28;4960604;28;20188;-74
2021/07/17 05:42:11;;;;;;;8.57;6.15;;;;;;;20.54;100.00;101481.59;4956903;28;20274;-74
2021/07/17 05:44:40;;;;;;;11.40;6.05;;;;;;;20.56;100.00;101484.84;4924698;29;20732;-74
2021/07/17 05:47:07;;;;;;;12.45;5.88;;;;;;;20.52;100.00;101489.41;4934925;29;20230;-75
2021/07/17 05:49:33;;;;;;;7.70;5.25;;;;;;;20.44;100.00;101498.47;4954109;29;20191;-74
2021/07/17 05:51:59;;;;;;;9.27;5.28;;;;;;;20.24;100.00;101497.38;4922139;29;20262;-73
2021/07/17 05:54:28;;;;;;;7.28;5.13;;;;;;;20.22;100.00;101491.34;4938703;29;20351;-73
2021/07/17 05:56:57;;;;;;;8.98;4.80;;;;;;;20.17;100.00;101488.72;4950464;29;20233;-73
2021/07/17 05:59:25;;;;;;;7.40;4.43;;;;;;;20.25;100.00;101499.78;4955232;28;20623;-73
2021/07/17 06:01:50;;;;;;;7.22;4.45;;;;;;;20.39;100.00;101496.97;4937855;28;20250;-74
2021/07/17 06:04:16;;;;;;;6.60;4.28;;;;;;;20.18;100.00;101498.59;4951706;29;20669;-75
2021/07/17 06:06:44;;;;;;;6.90;4.18;;;;;;;20.38;100.00;101504.41;4950473;28;20223;-74
2021/07/17 06:09:12;;;;;;;7.72;4.55;;;;;;;20.40;100.00;101496.63;4951574;29;20184;-74
2021/07/17 06:11:40;;;;;;;6.72;3.92;;;;;;;20.43;100.00;101500.72;4945383;29;20941;-74
2021/07/17 06:14:11;;;;;;;5.47;3.70;;;;;;;20.52;100.00;101507.91;4934972;29;20262;-74
2021/07/17 06:16:36;;;;;;;5.63;3.55;;;;;;;20.97;100.00;101497.28;4950629;28;20704;-74
2021/07/17 06:19:06;;;;;;;5.18;3.40;;;;;;;21.21;100.00;101497.66;4950263;29;20187;-74
2021/07/17 06:21:32;;;;;;;5.55;3.67;;;;;;;21.30;100.00;101495.72;4968984;28;20727;-74
2021/07/17 06:23:58;;;;;;;7.30;3.00;;;;;;;21.35;100.00;101504.66;4937884;28;20179;-73
2021/07/17 06:26:24;;;;;;;4.57;3.00;;;;;;;21.59;100.00;101498.72;4936472;29;20731;-73
2021/07/17 06:28:49;;;;;;;5.43;2.85;;;;;;;21.41;100.00;101500.66;4934418;29;20184;-74
2021/07/17 06:31:16;;;;;;;5.45;2.80;;;;;;;21.63;100.00;101509.63;4949261;29;20226;-76
2021/07/17 06:33:44;;;;;;;5.00;2.80;;;;;;;21.80;100.00;101506.88;4953913;29;20183;-74
2021/07/17 06:36:10;;;;;;;5.25;3.00;;;;;;;21.44;100.00;101513.81;4939596;29;20278;-73
2021/07/17 06:38:38;;;;;;;4.95;2.50;;;;;;;21.56;100.00;101516.78;4936025;29;20183;-73
2021/07/17 06:41:04;;;;;;;4.63;2.08;;;;;;;21.49;100.00;101524.75;4959130;28;20223;-74
2021/07/17 06:43:30;;;;;;;3.88;2.08;;;;;;;21.55;98.63;101517.91;4934502;29;20212;-73
2021/07/17 06:45:58;;;;;;;2.25;2.05;;;;;;;21.74;97.46;101532.25;4943761;29;20223;-74
2021/07/17 06:48:26;;;;;;;3.55;2.15;;;;;;;21.81;94.78;101535.34;4953125;29;20273;-74
2021/07/17 06:50:54;;;;;;;3.25;1.90;;;;;;;21.65;92.52;101532.25;4959154;28;20709;-73
2021/07/17 06:53:20;;;;;;;2.88;1.70;;;;;;;21.86;92.05;101536.00;4950419;29;20209;-76
2021/07/17 06:55:49;;;;;;;2.67;1.42;;;;;;;21.86;93.09;101538.75;4941425;29;20231;-74
2021/07/17 06:58:14;;;;;;;3.17;1.70;;;;;;;21.94;91.54;101537.13;4969005;28;20230;-74
2021/07/17 07:00:40;;;;;;;2.65;1.80;;;;;;;21.82;92.38;101535.03;4946241;29;20282;-75
2021/07/17 07:03:05;;;;;;;1.70;1.45;;;;;;;22.07;91.92;101540.56;4949781;28;20208;-74
2021/07/17 07:05:34;;;;;;;3.35;1.83;;;;;;;22.27;88.08;101539.09;4938323;29;20227;-76
2021/07/17 07:07:59;;;;;;;2.88;1.80;;;;;;;22.36;88.57;101539.91;4968878;28;20183;-75
2021/07/17 07:10:25;;;;;;;3.42;1.40;;;;;;;22.19;86.51;101540.72;4949545;29;20706;-74
2021/07/17 07:12:53;;;;;;;2.35;1.40;;;;;;;22.27;87.56;101539.94;4933848;29;20242;-74
2021/07/17 07:15:18;;;;;;;3.10;1.58;;;;;;;22.48;87.07;101540.84;4932975;28;20235;-75
2021/07/17 07:17:50;;;;;;;5.65;1.60;;;;;;;22.89;85.09;101542.72;4917767;29;20188;-74
2021/07/17 07:20:15;;;;;;;3.08;1.60;;;;;;;22.69;86.89;101544.53;4949118;28;20184;-75
2021/07/17 07:22:41;;;;;;;2.28;1.42;;;;;;;22.76;83.71;101545.66;4953192;28;20279;-74
2021/07/17 07:25:09;;;;;;;2.40;1.50;;;;;;;22.72;82.14;101541.13;4951250;28;20187;-77
2021/07/17 07:27:45;;;;;;;2.70;1.25;;;;;;;22.47;84.18;101551.13;4934214;29;20713;-75
2021/07/17 07:30:13;;;;;;;3.05;1.33;;;;;;;22.81;83.78;101543.53;4933203;28;20179;-75
2021/07/17 07:32:47;;;;;;;5.38;1.48;;;;;;;22.85;80.81;101540.91;4952212;29;20715;-73
2021/07/17 07:35:13;;;;;;;2.92;1.45;;;;;;;22.65;81.97;101540.81;4949697;28;20323;-73
2021/07/17 07:37:43;;;;;;;4.30;1.50;;;;;;;22.76;80.59;101544.84;4933789;29;20274;-75
2021/07/17 07:40:12;;;;;;;2.80;1.40;;;;;;;23.18;80.42;101553.84;4948242;28;20226;-76
2021/07/17 07:42:38;;;;;;;3.83;1.60;;;;;;;22.98;84.30;101551.00;4949369;28;20266;-73
2021/07/17 07:45:07;;;;;;;4.13;1.50;;;;;;;22.91;85.04;101554.28;4932513;29;20661;-75
2021/07/17 07:47:35;;;;;;;4.82;1.50;;;;;;;23.11;84.71;101550.75;4935314;29;20238;-73
2021/07/17 07:50:06;;;;;;;3.20;1.58;;;;;;;23.54;82.64;101543.03;4948924;28;20207;-73
2021/07/17 07:52:32;;;;;;;4.97;1.50;;;;;;;23.50;82.33;101556.78;4956510;28;20226;-74
2021/07/17 07:54:59;;;;;;;3.25;1.40;;;;;;;;;;4937975;28;20257;-75
2021/07/17 07:57:25;;;;;;;2.60;1.58;;;;;;;23.41;83.29;101553.22;4938795;29;20235;-75
2021/07/17 07:59:52;;;;;;;3.15;1.50;;;;;;;23.79;82.18;101543.69;4933511;29;20251;-74
2021/07/17 08:02:18;;;;;;;4.10;1.98;;;;;;;23.75;80.40;101541.94;4928905;29;20265;-76
2021/07/17 08:04:48;;;;;;;4.13;1.63;;;;;;;23.65;79.21;101540.38;4952916;29;20210;-74
2021/07/17 08:07:16;;;;;;;4.63;1.65;;;;;;;23.70;81.93;101545.72;4944611;29;20231;-74
2021/07/17 08:09:42;;;;;;;4.28;1.67;;;;;;;23.58;80.88;101539.28;4901501;29;20199;-73
2021/07/17 08:12:10;;;;;;;4.07;1.48;;;;;;;23.53;81.92;101536.66;4919792;29;20258;-75
2021/07/17 08:14:43;;;;;;;3.17;1.52;;;;;;;23.76;78.40;101536.03;4948546;29;20208;-77
2021/07/17 08:17:10;;;;;;;4.45;1.30;;;;;;;23.91;80.05;101543.75;4923347;29;20223;-68
2021/07/17 08:19:35;;;;;;;3.38;1.80;;;;;;;23.63;80.35;101542.66;4932632;29;20589;-73
2021/07/17 08:22:04;;;;;;;4.18;1.60;;;;;;;23.59;79.29;101552.81;4913918;29;20219;-73
2021/07/17 08:24:32;;;;;;;4.40;1.60;;;;;;;23.73;77.78;101542.25;4929530;29;20249;-74
2021/07/17 08:26:59;;;;;;;4.78;1.50;;;;;;;24.12;78.30;101544.56;4946035;28;20596;-73
2021/07/17 08:29:25;;;;;;;4.47;1.80;;;;;;;24.58;77.25;101536.75;4971011;28;20555;-75
2021/07/17 08:31:50;;;;;;;4.20;1.50;;;;;;;24.06;75.26;101535.63;4953529;28;20233;-74
2021/07/17 08:34:16;;;;;;;3.53;1.60;;;;;;;24.15;76.43;101549.44;4936282;28;20242;-78
2021/07/17 08:36:44;;;;;;;3.88;1.50;;;;;;;24.24;75.16;101547.41;4917247;29;20219;-76
2021/07/17 08:39:12;;;;;;;4.00;1.45;;;;;;;24.24;74.65;101544.63;4914944;29;20580;-77
2021/07/17 08:41:43;;;;;;;3.63;1.45;;;;;;;24.09;73.19;101556.34;4927832;29;20227;-74
2021/07/17 08:44:08;;;;;;;3.65;1.40;;;;;;;24.09;73.54;101546.06;4937609;29;20806;-76
2021/07/17 08:46:38;;;;;;;2.47;1.27;;;;;;;23.93;72.00;101552.56;4965131;28;20237;-75
2021/07/17 08:49:04;;;;;;;3.17;1.42;;;;;;;24.07;74.78;101551.13;4920287;29;20191;-76
2021/07/17 08:51:29;;;;;;;4.45;1.48;;;;;;;24.16;75.55;101551.88;4940789;28;20232;-75
2021/07/17 08:53:55;;;;;;;3.72;1.60;;;;;;;24.26;75.27;101556.19;4941451;29;20654;-75
2021/07/17 08:56:21;;;;;;;4.57;1.80;;;;;;;24.70;75.83;101554.28;4936101;29;20228;-74
2021/07/17 08:58:48;;;;;;;5.30;1.90;;;;;;;24.86;74.34;101549.69;4923510;29;20564;-74
2021/07/17 09:01:18;;;;;;;3.85;1.80;;;;;;;24.58;73.19;101561.78;4954854;28;20230;-74
2021/07/17 09:03:44;;;;;;;3.25;1.40;;;;;;;24.56;74.18;101566.88;4940607;29;20196;-73
2021/07/17 09:06:09;;;;;;;5.65;1.77;;;;;;;24.54;75.81;101558.91;4935601;29;20787;-74
2021/07/17 09:08:35;;;;;;;5.15;1.80;;;;;;;24.49;75.54;101552.75;4948967;29;20190;-75
2021/07/17 09:11:03;;;;;;;2.80;1.52;;;;;;;24.69;75.24;101549.06;4907017;29;20220;-76
2021/07/17 09:13:32;;;;;;;2.95;1.75;;;;;;;24.90;73.83;101543.09;4954281;28;20218;-75
2021/07/17 09:15:59;;;;;;;3.25;1.77;;;;;;;24.73;74.43;101556.41;4938395;29;20297;-74
2021/07/17 09:18:29;;;;;;;4.00;1.75;;;;;;;24.91;72.61;101549.50;4936289;29;20456;-75
2021/07/17 09:20:55;;;;;;;5.50;2.10;;;;;;;25.05;70.60;101547.19;4919598;29;20242;-74
2021/07/17 09:23:26;;;;;;;5.68;1.63;;;;;;;25.20;72.42;101547.31;4951402;28;20619;-73
2021/07/17 09:25:56;;;;;;;4.38;1.60;;;;;;;24.83;71.26;101553.16;4919570;29;20250;-75
2021/07/17 09:28:23;;;;;;;4.57;1.60;;;;;;;25.07;71.86;101551.25;4931633;29;20207;-72
2021/07/17 09:30:52;;;;;;;3.45;1.48;;;;;;;25.14;71.09;101552.28;4934846;29;20216;-74
2021/07/17 09:33:19;;;;;;;3.88;1.30;;;;;;;25.18;68.66;101556.03;4937697;29;20215;-74
2021/07/17 09:35:48;;;;;;;3.78;1.48;;;;;;;24.97;72.04;101553.69;4936250;29;20282;-75
2021/07/17 09:38:15;;;;;;;3.47;1.30;;;;;;;25.22;71.00;101543.03;4937421;29;20271;-74
2021/07/17 09:40:53;;;;;;;7.15;1.55;;;;;;;25.22;66.83;101554.16;4923961;29;20234;-75
2021/07/17 09:43:28;;;;;;;3.72;1.20;;;;;;;25.17;68.16;101551.63;4935539;29;20228;-74
2021/07/17 09:45:54;;;;;;;4.90;2.47;;;;;;;25.37;69.22;101534.00;4920178;29;20219;-79
2021/07/17 09:48:33;;;;;;;3.75;1.50;;;;;;;25.16;68.35;101547.22;4924840;29;20245;-76
2021/07/17 09:50:59;;;;;;;3.53;1.27;;;;;;;25.69;67.91;101535.81;4928336;29;20243;-74
2021/07/17 09:53:43;;;;;;;2.90;1.20;;;;;;;25.67;65.11;101544.53;4934674;29;20217;-75
2021/07/17 09:56:12;;;;;;;1.88;1.10;;;;;;;25.62;64.02;101541.16;4933287;29;20259;-73
2021/07/17 09:58:38;;;;;;;3.15;1.17;;;;;;;25.57;66.42;101535.84;4949629;28;20578;-74
2021/07/17 10:01:16;;;;;;;4.20;1.40;;;;;;;25.68;65.54;101548.94;4933918;29;20597;-75
2021/07/17 10:03:42;;;;;;;3.15;1.38;;;;;;;25.35;65.77;101541.88;4936963;29;20192;-75
2021/07/17 10:06:26;;;;;;;4.70;1.63;;;;;;;25.23;66.55;101543.84;4934550;29;20573;-77
2021/07/17 10:08:52;;;;;;;3.28;1.20;;;;;;;25.36;62.78;101542.69;4935295;29;20191;-75
2021/07/17 10:11:27;;;;;;;1.95;1.00;;;;;;;25.45;61.32;101541.41;4934240;28;20223;-76
2021/07/17 10:13:55;;;;;;;4.40;1.20;;;;;;;25.45;62.86;101541.41;4928168;29;20187;-75
2021/07/17 10:16:22;;;;;;;2.85;1.10;;;;;;;25.81;62.93;101535.81;4917279;29;20223;-78
2021/07/17 10:18:54;;;;;;;4.30;1.20;;;;;;;25.93;61.76;101525.44;4934333;29;20261;-76
2021/07/17 10:21:21;;;;;;;2.22;1.05;;;;;;;26.48;62.86;101531.84;4918555;29;20227;-76
2021/07/17 10:23:47;;;;;;;3.15;1.20;;;;;;;26.40;60.46;101530.03;4937680;29;20229;-74
2021/07/17 10:26:12;;;;;;;2.72;1.13;;;;;;;26.39;62.18;101532.03;4934217;29;20728;-74
2021/07/17 10:28:44;;;;;;;4.30;1.08;;;;;;;26.20;62.04;101544.97;4931895;29;20239;-75
2021/07/17 10:31:12;;;;;;;2.35;0.93;;;;;;;26.26;61.03;101523.25;4933398;29;20238;-75
2021/07/17 10:33:37;;;;;;;2.97;1.35;;;;;;;26.47;63.25;101530.25;4903589;29;20199;-77
2021/07/17 10:36:07;;;;;;;3.55;1.20;;;;;;;26.95;63.21;101530.78;4933460;29;20239;-75
2021/07/17 10:38:32;;;;;;;4.78;1.10;;;;;;;27.00;62.93;101528.53;4929175;29;20188;-78
2021/07/17 10:41:01;;;;;;;2.47;1.45;;;;;;;27.00;59.94;101528.53;4918758;29;20625;-74
2021/07/17 10:43:31;;;;;;;5.05;1.20;;;;;;;26.86;56.98;101528.16;4953705;28;20258;-77
2021/07/17 10:46:02;;;;;;;3.50;1.20;;;;;;;26.93;60.40;101525.56;4934897;29;20306;-76
2021/07/17 10:48:31;;;;;;;3.08;1.35;;;;;;;26.44;57.39;101515.03;4916932;29;20192;-73
2021/07/17 10:51:01;;;;;;;2.95;1.20;;;;;;;26.78;61.46;101517.16;4934437;29;20274;-76
2021/07/17 10:53:48;;;;;;;2.55;1.10;;;;;;;27.31;59.35;101522.94;4930922;29;20220;-76
2021/07/17 10:56:28;;;;;;;3.92;1.30;;;;;;;27.00;58.44;101520.16;4933372;29;20239;-76
2021/07/17 10:58:57;;;;;;;4.07;1.40;;;;;;;26.99;56.64;101526.91;4933638;29;20194;-75
2021/07/17 11:01:25;;;;;;;4.03;1.60;;;;;;;27.08;56.96;101519.16;4950251;29;20223;-76
2021/07/17 11:03:51;;;;;;;2.22;1.10;;;;;;;26.92;58.16;101521.16;4968375;28;20214;-75
2021/07/17 11:06:27;;;;;;;2.42;1.17;;;;;;;26.65;59.31;101512.00;4917513;29;20270;-75
2021/07/17 11:08:53;;;;;;;4.05;1.50;;;;;;;26.68;61.66;101526.03;4933106;29;20183;-76
2021/07/17 11:11:31;;;;;;;5.32;1.20;;;;;;;26.73;57.90;101517.41;4962432;28;20223;-74
2021/07/17 11:14:08;;;;;;;2.88;1.05;;;;;;;26.52;58.55;101516.03;4942714;29;20255;-75
2021/07/17 11:16:45;;;;;;;2.42;1.35;;;;;;;26.88;60.46;101523.03;4930593;29;20226;-77